< < Back
Terminal Aerodrome Forecast


Current Version              Previous Versions:   1  2  3  4  5  6  7  8  9  

Terminal Aerodrome Forecast

110
FTUS42 KGSP 312042 AAA
TAFHKY
TAF AMD
KHKY 312042Z 3121/0118 05004KT P6SM SCT045
      TEMPO 3121/3123 3SM -TSRA BR BKN040CB
     FM312300 04003KT P6SM VCSH SCT050
     FM010300 VRB03KT P6SM SCT060 BKN100
     FM011400 03004KT P6SM SCT035=



Latest METAR

283
SAUS70 KWBC 010100 RRK
MTRHKY
METAR KHKY 010053Z AUTO 26005KT 10SM CLR 21/20 A2999 RMK AO2 SLP138
T02060200


USA.gov is the U.S. government's official web portal to all federal, state and local government web resources and services.